createdAt,value
2018-05-04T00:00:36.553Z,95679.34
2018-05-04T00:03:04.861Z,95672.72
2018-05-04T00:05:33.282Z,95661.30
2018-05-04T00:08:01.589Z,95665.09
2018-05-04T00:10:29.917Z,95666.31
2018-05-04T00:12:58.232Z,95667.55
2018-05-04T00:15:26.644Z,95667.05
2018-05-04T00:17:54.964Z,95667.11
2018-05-04T00:20:23.282Z,95666.89
2018-05-04T00:22:51.674Z,95673.19
2018-05-04T00:25:20.070Z,95678.07
2018-05-04T00:27:48.437Z,95677.64
2018-05-04T00:30:16.771Z,95679.94
2018-05-04T00:32:45.135Z,95682.74
2018-05-04T00:35:13.473Z,95685.11
2018-05-04T00:37:41.816Z,95676.78
2018-05-04T00:40:10.125Z,95689.48
2018-05-04T00:42:38.470Z,95682.63
2018-05-04T00:45:06.789Z,95681.23
2018-05-04T00:47:35.155Z,95684.53
2018-05-04T00:50:03.468Z,95691.67
2018-05-04T00:52:31.824Z,95692.30
2018-05-04T00:55:00.142Z,95686.53
2018-05-04T00:57:28.448Z,95693.00
2018-05-04T00:59:56.832Z,95688.74
2018-05-04T01:02:25.221Z,95692.20
2018-05-04T01:04:53.609Z,95694.11
2018-05-04T01:07:21.919Z,95693.21
2018-05-04T01:09:50.253Z,95696.60
2018-05-04T01:12:18.581Z,95693.70
2018-05-04T01:14:46.913Z,95693.05
2018-05-04T01:17:15.289Z,95683.15
2018-05-04T01:19:43.611Z,95684.08
2018-05-04T01:22:11.937Z,95686.53
2018-05-04T01:24:40.243Z,95687.74
2018-05-04T01:27:08.547Z,95682.33
2018-05-04T01:29:36.871Z,95694.28
2018-05-04T01:32:05.192Z,95693.52
2018-05-04T01:34:33.504Z,95692.34
2018-05-04T01:37:01.822Z,95696.13
2018-05-04T01:39:30.144Z,95694.97
2018-05-04T01:41:58.448Z,95691.86
2018-05-04T01:44:26.783Z,95689.78
2018-05-04T01:46:55.095Z,95695.73
2018-05-04T01:49:23.628Z,95692.81
2018-05-04T01:51:51.976Z,95684.47
2018-05-04T01:54:20.286Z,95683.65
2018-05-04T01:56:48.626Z,95683.11
2018-05-04T01:59:16.973Z,95690.53
2018-05-04T02:01:45.385Z,95685.88
2018-05-04T02:04:13.694Z,95688.75
2018-05-04T02:06:42.033Z,95690.23
2018-05-04T02:09:10.353Z,95686.81
2018-05-04T02:11:38.797Z,95691.02
2018-05-04T02:14:08.095Z,95692.91
2018-05-04T02:16:36.424Z,95692.00
2018-05-04T02:19:04.730Z,95694.02
2018-05-04T02:21:33.077Z,95687.95
2018-05-04T02:24:01.396Z,95691.77
2018-05-04T02:26:29.714Z,95698.42
2018-05-04T02:28:58.060Z,95697.30
2018-05-04T02:31:26.392Z,95701.70
2018-05-04T02:33:54.709Z,95697.27
2018-05-04T02:36:23.031Z,95698.02
2018-05-04T02:38:51.344Z,95695.52
2018-05-04T02:41:19.691Z,95697.58
2018-05-04T02:43:48.029Z,95703.69
2018-05-04T02:46:16.349Z,95699.81
2018-05-04T02:48:44.646Z,95696.31
2018-05-04T02:51:13.974Z,95696.70
2018-05-04T02:53:42.349Z,95693.56
2018-05-04T02:56:10.664Z,95702.05
2018-05-04T02:58:39.007Z,95702.97
2018-05-04T03:01:07.316Z,95710.91
2018-05-04T03:03:35.624Z,95711.27
2018-05-04T03:06:03.933Z,95708.42
2018-05-04T03:08:32.318Z,95716.53
2018-05-04T03:11:00.637Z,95706.58
2018-05-04T03:13:28.995Z,95706.23
2018-05-04T03:15:57.346Z,95713.59
2018-05-04T03:18:25.728Z,95714.14
2018-05-04T03:20:54.100Z,95705.26
2018-05-04T03:23:22.486Z,95706.14
2018-05-04T03:25:50.789Z,95711.55
2018-05-04T03:28:19.121Z,95707.64
2018-05-04T03:30:47.433Z,95711.39
2018-05-04T03:33:15.737Z,95710.27
2018-05-04T03:35:44.058Z,95717.52
2018-05-04T03:38:12.378Z,95713.99
2018-05-04T03:40:40.712Z,95710.78
2018-05-04T03:43:09.053Z,95711.11
2018-05-04T03:45:37.418Z,95715.27
2018-05-04T03:48:05.760Z,95718.67
2018-05-04T03:50:34.163Z,95723.80
2018-05-04T03:53:02.530Z,95728.75
2018-05-04T03:55:30.898Z,95726.36
2018-05-04T03:58:11.138Z,95727.20
2018-05-04T04:00:51.317Z,95726.78
2018-05-04T04:03:31.401Z,95731.38
2018-05-04T04:05:59.734Z,95730.98
2018-05-04T04:08:28.113Z,95732.25
2018-05-04T04:10:56.464Z,95734.02
2018-05-04T04:13:24.775Z,95732.96
2018-05-04T04:15:53.102Z,95732.87
2018-05-04T04:18:21.532Z,95735.17
2018-05-04T04:20:49.912Z,95741.84
2018-05-04T04:23:18.230Z,95741.88
2018-05-04T04:25:46.546Z,95747.27
2018-05-04T04:28:14.895Z,95751.36
2018-05-04T04:30:43.190Z,95740.20
2018-05-04T04:33:11.514Z,95741.81
2018-05-04T04:35:39.822Z,95744.62
2018-05-04T04:38:08.140Z,95740.23
2018-05-04T04:40:36.453Z,95739.74
2018-05-04T04:43:04.769Z,95745.27
2018-05-04T04:45:33.129Z,95753.02
2018-05-04T04:48:01.413Z,95749.70
2018-05-04T04:50:29.712Z,95754.38
2018-05-04T04:52:58.105Z,95758.65
2018-05-04T04:55:26.445Z,95762.19
2018-05-04T04:57:54.804Z,95770.15
2018-05-04T05:00:24.117Z,95770.73
2018-05-04T05:02:52.474Z,95773.73
2018-05-04T05:05:20.854Z,95778.02
2018-05-04T05:07:49.154Z,95778.02
2018-05-04T05:10:17.512Z,95773.03
2018-05-04T05:12:45.932Z,95778.13
2018-05-04T05:15:14.326Z,95775.56
2018-05-04T05:17:42.717Z,95775.70
2018-05-04T05:20:11.013Z,95778.24
2018-05-04T05:22:39.339Z,95782.42
2018-05-04T05:25:07.734Z,95796.80
2018-05-04T05:27:36.046Z,95787.28
2018-05-04T05:30:04.353Z,95796.78
2018-05-04T05:32:32.769Z,95792.13
2018-05-04T05:35:01.177Z,95789.13
2018-05-04T05:37:29.518Z,95782.31
2018-05-04T05:39:57.897Z,95784.59
2018-05-04T05:42:26.374Z,95786.95
2018-05-04T05:44:54.636Z,95789.56
2018-05-04T05:47:22.964Z,95791.61
2018-05-04T05:49:51.324Z,95795.61
2018-05-04T05:52:19.640Z,95797.11
2018-05-04T05:54:48.013Z,95793.39
2018-05-04T05:57:16.311Z,95786.00
2018-05-04T05:59:44.634Z,95799.73
2018-05-04T06:02:13.005Z,95796.97
2018-05-04T06:04:41.315Z,95791.81
2018-05-04T06:07:09.629Z,95786.75
2018-05-04T06:09:38.033Z,95786.36
2018-05-04T06:12:06.340Z,95789.44
2018-05-04T06:14:34.645Z,95784.99
2018-05-04T06:17:02.977Z,95790.67
2018-05-04T06:19:31.292Z,95805.85
2018-05-04T06:21:59.623Z,95811.68
2018-05-04T06:24:28.041Z,95808.78
2018-05-04T06:26:56.379Z,95806.33
2018-05-04T06:29:24.859Z,95804.70
2018-05-04T06:31:53.250Z,95808.42
2018-05-04T06:34:21.576Z,95814.66
2018-05-04T06:36:49.889Z,95804.24
2018-05-04T06:39:18.205Z,95804.48
2018-05-04T06:41:46.518Z,95808.98
2018-05-04T06:44:14.927Z,95814.05
2018-05-04T06:46:43.305Z,95815.63
2018-05-04T06:49:11.613Z,95815.63
2018-05-04T06:51:39.999Z,95814.25
2018-05-04T06:54:09.333Z,95815.20
2018-05-04T06:56:37.645Z,95814.69
2018-05-04T06:59:06.023Z,95816.64
2018-05-04T07:01:34.361Z,95811.84
2018-05-04T07:04:02.820Z,95815.22
2018-05-04T07:06:31.116Z,95809.78
2018-05-04T07:08:59.478Z,95815.59
2018-05-04T07:11:27.772Z,95809.44
2018-05-04T07:13:56.065Z,95824.58
2018-05-04T07:16:24.389Z,95826.38
2018-05-04T07:18:52.754Z,95825.05
2018-05-04T07:21:21.068Z,95830.28
2018-05-04T07:23:49.409Z,95836.88
2018-05-04T07:26:18.351Z,95842.30
2018-05-04T07:28:46.777Z,95828.36
2018-05-04T07:31:15.093Z,95827.23
2018-05-04T07:33:43.405Z,95823.31
2018-05-04T07:36:11.823Z,95820.22
2018-05-04T07:38:40.137Z,95826.69
2018-05-04T07:41:08.441Z,95824.24
2018-05-04T07:43:36.832Z,95826.02
2018-05-04T07:46:05.152Z,95825.94
2018-05-04T07:48:33.448Z,95825.89
2018-05-04T07:51:01.852Z,95825.57
2018-05-04T07:53:30.253Z,95826.75
2018-05-04T07:55:58.564Z,95820.82
2018-05-04T07:58:26.869Z,95821.07
2018-05-04T08:00:55.219Z,95814.80
2018-05-04T08:03:23.529Z,95819.86
2018-05-04T08:05:51.845Z,95825.77
2018-05-04T08:08:20.165Z,95829.13
2018-05-04T08:10:48.489Z,95833.90
2018-05-04T08:13:16.813Z,95834.02
2018-05-04T08:15:45.129Z,95834.05
2018-05-04T08:18:13.448Z,95835.12
2018-05-04T08:20:41.760Z,95831.98
2018-05-04T08:23:10.117Z,95833.68
2018-05-04T08:25:38.428Z,95830.91
2018-05-04T08:28:06.812Z,95834.90
2018-05-04T08:30:35.194Z,95832.22
2018-05-04T08:33:03.544Z,95838.59
2018-05-04T08:35:32.038Z,95836.43
2018-05-04T08:38:00.446Z,95838.47
2018-05-04T08:40:28.774Z,95831.51
2018-05-04T08:42:57.118Z,95830.58
2018-05-04T08:45:25.425Z,95841.13
2018-05-04T08:47:53.745Z,95836.36
2018-05-04T08:50:22.057Z,95848.97
2018-05-04T08:52:50.388Z,95835.53
2018-05-04T08:55:18.707Z,95841.24
2018-05-04T08:57:47.021Z,95837.11
2018-05-04T09:00:15.413Z,95838.92
2018-05-04T09:02:43.808Z,95842.91
2018-05-04T09:05:12.168Z,95850.10
2018-05-04T09:07:40.440Z,95842.37
2018-05-04T09:10:08.876Z,95847.58
2018-05-04T09:12:37.180Z,95847.11
2018-05-04T09:15:05.572Z,95848.33
2018-05-04T09:17:33.888Z,95850.64
2018-05-04T09:20:02.211Z,95855.08
2018-05-04T09:22:30.542Z,95855.26
2018-05-04T09:24:58.916Z,95851.52
2018-05-04T09:27:27.273Z,95850.19
2018-05-04T09:29:55.653Z,95860.39
2018-05-04T09:32:23.969Z,95860.46
2018-05-04T09:34:52.305Z,95854.56
2018-05-04T09:37:20.759Z,95858.12
2018-05-04T09:39:49.029Z,95857.08
2018-05-04T09:42:17.361Z,95860.66
2018-05-04T09:44:45.721Z,95860.17
2018-05-04T09:47:14.145Z,95867.45
2018-05-04T09:49:42.477Z,95859.59
2018-05-04T09:52:10.807Z,95861.64
2018-05-04T09:54:39.112Z,95863.41
2018-05-04T09:57:07.555Z,95867.98
2018-05-04T09:59:35.900Z,95862.84
2018-05-04T10:02:04.221Z,95863.20
2018-05-04T10:04:32.590Z,95860.98
2018-05-04T10:07:00.907Z,95866.40
2018-05-04T10:09:29.267Z,95873.31
2018-05-04T10:11:57.586Z,95874.58
2018-05-04T10:14:25.914Z,95874.72
2018-05-04T10:16:54.235Z,95872.89
2018-05-04T10:19:22.621Z,95880.09
2018-05-04T10:21:51.077Z,95878.50
2018-05-04T10:24:19.373Z,95874.81
2018-05-04T10:26:47.810Z,95880.92
2018-05-04T10:29:16.142Z,95878.30
2018-05-04T10:31:44.452Z,95873.67
2018-05-04T10:34:12.778Z,95868.19
2018-05-04T10:36:41.168Z,95869.75
2018-05-04T10:39:09.537Z,95868.82
2018-05-04T10:41:37.860Z,95863.34
2018-05-04T10:44:06.201Z,95863.73
2018-05-04T10:46:34.538Z,95869.77
2018-05-04T10:49:02.862Z,95866.71
2018-05-04T10:51:31.171Z,95864.51
2018-05-04T10:53:59.497Z,95867.08
2018-05-04T10:56:27.809Z,95864.78
2018-05-04T10:58:56.158Z,95862.03
2018-05-04T11:01:24.533Z,95861.42
2018-05-04T11:03:52.909Z,95862.19
2018-05-04T11:06:21.329Z,95864.00
2018-05-04T11:08:49.677Z,95862.71
2018-05-04T11:11:18.050Z,95867.80
2018-05-04T11:13:46.399Z,95872.75
2018-05-04T11:16:14.704Z,95872.39
2018-05-04T11:18:43.024Z,95872.69
2018-05-04T11:21:11.391Z,95867.26
2018-05-04T11:23:39.741Z,95874.44
2018-05-04T11:26:08.064Z,95874.76
2018-05-04T11:28:36.431Z,95875.19
2018-05-04T11:31:04.762Z,95866.07
2018-05-04T11:33:33.145Z,95870.27
2018-05-04T11:36:01.481Z,95859.11
2018-05-04T11:38:29.804Z,95870.56
2018-05-04T11:40:58.122Z,95868.33
2018-05-04T11:43:26.459Z,95877.08
2018-05-04T11:45:54.769Z,95875.16
2018-05-04T11:48:23.084Z,95873.20
2018-05-04T11:50:51.522Z,95879.23
2018-05-04T11:53:19.828Z,95883.69
2018-05-04T11:55:48.241Z,95889.17
2018-05-04T11:58:16.658Z,95884.44
2018-05-04T12:00:44.961Z,95889.88
2018-05-04T12:03:13.281Z,95886.48
2018-05-04T12:05:41.646Z,95892.48
2018-05-04T12:08:09.959Z,95888.62
2018-05-04T12:10:38.345Z,95885.66
2018-05-04T12:13:06.661Z,95887.77
2018-05-04T12:15:34.989Z,95883.61
2018-05-04T12:18:03.309Z,95881.94
2018-05-04T12:20:31.635Z,95882.02
2018-05-04T12:22:59.958Z,95878.37
2018-05-04T12:25:28.380Z,95880.29
2018-05-04T12:27:56.723Z,95879.49
2018-05-04T12:30:25.046Z,95875.20
2018-05-04T12:32:53.376Z,95876.84
2018-05-04T12:35:21.706Z,95870.11
2018-05-04T12:37:50.094Z,95880.66
2018-05-04T12:40:18.476Z,95877.27
2018-05-04T12:42:46.853Z,95872.28
2018-05-04T12:45:15.167Z,95875.57
2018-05-04T12:47:43.569Z,95870.59
2018-05-04T12:50:11.922Z,95870.59
2018-05-04T12:52:41.489Z,95863.16
2018-05-04T12:55:09.755Z,95862.90
2018-05-04T12:57:38.140Z,95849.34
2018-05-04T13:00:06.449Z,95846.53
2018-05-04T13:02:34.858Z,95845.86
2018-05-04T13:05:03.201Z,95828.77
2018-05-04T13:07:31.540Z,95830.90
2018-05-04T13:09:59.938Z,95829.61
2018-05-04T13:12:28.269Z,95825.64
2018-05-04T13:14:56.598Z,95830.88
2018-05-04T13:17:25.045Z,95830.52
2018-05-04T13:19:53.334Z,95831.91
2018-05-04T13:22:21.646Z,95824.86
2018-05-04T13:24:50.003Z,95825.31
2018-05-04T13:27:18.329Z,95825.42
2018-05-04T13:29:46.715Z,95818.78
2018-05-04T13:32:15.021Z,95823.84
2018-05-04T13:34:43.357Z,95816.78
2018-05-04T13:37:11.746Z,95813.41
2018-05-04T13:39:40.065Z,95811.04
2018-05-04T13:42:08.500Z,95812.80
2018-05-04T13:44:36.896Z,95810.86
2018-05-04T13:47:05.200Z,95806.08
2018-05-04T13:49:33.596Z,95808.22
2018-05-04T13:52:01.899Z,95806.80
2018-05-04T13:54:30.208Z,95805.22
2018-05-04T13:56:58.584Z,95799.17
2018-05-04T13:59:26.995Z,95795.84
2018-05-04T14:01:55.285Z,95793.52
2018-05-04T14:04:23.601Z,95787.58
2018-05-04T14:06:51.922Z,95788.80
2018-05-04T14:09:20.358Z,95793.84
2018-05-04T14:11:48.741Z,95783.45
2018-05-04T14:14:17.045Z,95787.06
2018-05-04T14:16:45.356Z,95780.88
2018-05-04T14:19:13.773Z,95786.02
2018-05-04T14:21:42.087Z,95787.25
2018-05-04T14:24:10.404Z,95781.72
2018-05-04T14:26:38.721Z,95790.62
2018-05-04T14:29:07.024Z,95783.94
2018-05-04T14:31:35.364Z,95782.77
2018-05-04T14:34:03.686Z,95787.10
2018-05-04T14:36:31.998Z,95784.48
2018-05-04T14:39:00.311Z,95787.34
2018-05-04T14:41:28.671Z,95787.71
2018-05-04T14:43:57.186Z,95783.00
2018-05-04T14:46:25.477Z,95776.82
2018-05-04T14:48:53.789Z,95779.27
2018-05-04T14:51:22.198Z,95777.52
2018-05-04T14:53:50.497Z,95778.47
2018-05-04T14:56:18.801Z,95778.53
2018-05-04T14:58:47.124Z,95786.42
2018-05-04T15:01:15.477Z,95782.84
2018-05-04T15:03:43.869Z,95778.75
2018-05-04T15:06:12.286Z,95778.80
2018-05-04T15:08:40.579Z,95778.91
2018-05-04T15:11:08.999Z,95779.70
2018-05-04T15:13:37.385Z,95785.28
2018-05-04T15:16:05.839Z,95794.20
2018-05-04T15:18:34.094Z,95787.65
2018-05-04T15:21:02.404Z,95787.79
2018-05-04T15:23:30.730Z,95785.66
2018-05-04T15:25:59.054Z,95779.88
2018-05-04T15:28:27.449Z,95776.63
2018-05-04T15:30:55.769Z,95782.50
2018-05-04T15:33:24.082Z,95783.58
2018-05-04T15:35:52.395Z,95781.94
2018-05-04T15:38:20.697Z,95785.09
2018-05-04T15:40:49.019Z,95786.69
2018-05-04T15:43:17.333Z,95787.38
2018-05-04T15:45:45.683Z,95786.30
2018-05-04T15:48:19.543Z,95786.25
2018-05-04T15:50:53.493Z,95793.20
2018-05-04T15:53:21.881Z,95798.19
2018-05-04T15:55:50.211Z,95795.02
2018-05-04T15:58:18.531Z,95796.22
2018-05-04T16:00:46.876Z,95799.86
2018-05-04T16:03:15.185Z,95796.48
2018-05-04T16:05:43.487Z,95796.19
2018-05-04T16:08:11.824Z,95811.99
2018-05-04T16:10:40.219Z,95808.24
2018-05-04T16:13:08.597Z,95809.64
2018-05-04T16:15:36.969Z,95818.81
2018-05-04T16:18:05.348Z,95819.06
2018-05-04T16:20:33.772Z,95811.86
2018-05-04T16:23:02.118Z,95815.52
2018-05-04T16:25:30.485Z,95811.00
2018-05-04T16:27:58.824Z,95819.00
2018-05-04T16:30:27.130Z,95820.94
2018-05-04T16:32:55.447Z,95822.22
2018-05-04T16:35:23.793Z,95822.86
2018-05-04T16:37:52.125Z,95821.12
2018-05-04T16:40:20.453Z,95823.66
2018-05-04T16:42:48.838Z,95826.29
2018-05-04T16:45:17.168Z,95823.16
2018-05-04T16:47:51.158Z,95820.83
2018-05-04T16:50:19.481Z,95823.83
2018-05-04T16:52:47.877Z,95819.02
2018-05-04T16:55:16.258Z,95825.69
2018-05-04T16:57:44.579Z,95820.86
2018-05-04T17:00:12.915Z,95818.61
2018-05-04T17:02:41.221Z,95824.34
2018-05-04T17:05:09.599Z,95829.32
2018-05-04T17:07:37.925Z,95835.55
2018-05-04T17:10:06.236Z,95837.41
2018-05-04T17:12:34.569Z,95836.88
2018-05-04T17:15:02.890Z,95845.18
2018-05-04T17:17:31.234Z,95841.24
2018-05-04T17:19:59.629Z,95851.92
2018-05-04T17:22:27.964Z,95847.39
2018-05-04T17:24:56.293Z,95845.62
2018-05-04T17:27:24.617Z,95847.39
2018-05-04T17:29:52.969Z,95851.06
2018-05-04T17:32:21.274Z,95847.69
2018-05-04T17:34:49.682Z,95844.61
2018-05-04T17:37:18.011Z,95842.02
2018-05-04T17:39:46.339Z,95850.27
2018-05-04T17:42:14.668Z,95849.63
2018-05-04T17:44:43.000Z,95852.88
2018-05-04T17:47:11.487Z,95858.36
2018-05-04T17:49:39.724Z,95854.75
2018-05-04T17:52:08.057Z,95849.16
2018-05-04T17:54:36.372Z,95863.98
2018-05-04T17:57:04.800Z,95855.64
2018-05-04T17:59:33.128Z,95865.19
2018-05-04T18:02:01.481Z,95872.92
2018-05-04T18:04:29.911Z,95870.08
2018-05-04T18:06:58.241Z,95877.80
2018-05-04T18:09:26.570Z,95874.31
2018-05-04T18:11:54.885Z,95877.50
2018-05-04T18:14:23.231Z,95882.41
2018-05-04T18:16:51.601Z,95881.45
2018-05-04T18:19:19.925Z,95880.28
2018-05-04T18:21:48.257Z,95887.56
2018-05-04T18:24:16.579Z,95889.04
2018-05-04T18:26:44.906Z,95891.80
2018-05-04T18:29:13.238Z,95898.68
2018-05-04T18:31:41.673Z,95903.25
2018-05-04T18:34:10.053Z,95901.08
2018-05-04T18:36:38.392Z,95905.42
2018-05-04T18:39:06.851Z,95906.57
2018-05-04T18:41:35.245Z,95901.97
2018-05-04T18:44:03.575Z,95909.23
2018-05-04T18:46:31.892Z,95916.67
2018-05-04T18:49:00.216Z,95918.67
2018-05-04T18:51:28.558Z,95933.41
2018-05-04T18:53:56.886Z,95934.22
2018-05-04T18:56:25.255Z,95938.48
2018-05-04T18:58:53.642Z,95937.53
2018-05-04T19:01:22.005Z,95946.48
2018-05-04T19:03:50.374Z,95947.88
2018-05-04T19:06:18.697Z,95949.67
2018-05-04T19:08:47.031Z,95953.44
2018-05-04T19:11:15.364Z,95959.52
2018-05-04T19:13:43.777Z,95960.78
2018-05-04T19:16:12.180Z,95964.41
2018-05-04T19:18:40.561Z,95967.94
2018-05-04T19:21:08.935Z,95960.05
2018-05-04T19:23:37.351Z,95961.44
2018-05-04T19:26:05.691Z,95959.86
2018-05-04T19:28:34.028Z,95968.87
2018-05-04T19:31:02.452Z,95963.52
2018-05-04T19:33:30.800Z,95962.33
2018-05-04T19:35:59.199Z,95964.05
2018-05-04T19:38:27.588Z,95969.66
2018-05-04T19:40:55.964Z,95970.44
2018-05-04T19:43:24.285Z,95970.30
2018-05-04T19:45:52.730Z,95978.67
2018-05-04T19:48:21.094Z,95974.88
2018-05-04T19:50:49.486Z,95973.84
2018-05-04T19:53:17.807Z,95966.92
2018-05-04T19:55:46.239Z,95973.84
2018-05-04T19:58:14.653Z,95970.06
2018-05-04T20:00:42.977Z,95979.35
2018-05-04T20:03:11.365Z,95979.20
2018-05-04T20:05:39.752Z,95978.56
2018-05-04T20:08:08.096Z,95975.20
2018-05-04T20:10:36.444Z,95981.22
2018-05-04T20:13:04.781Z,95972.98
2018-05-04T20:15:33.126Z,95967.36
2018-05-04T20:18:01.452Z,95974.03
2018-05-04T20:20:29.820Z,95969.56
2018-05-04T20:22:58.145Z,95967.78
2018-05-04T20:25:26.503Z,95966.17
2018-05-04T20:27:54.845Z,95961.55
2018-05-04T20:30:23.211Z,95963.13
2018-05-04T20:32:51.602Z,95963.48
2018-05-04T20:35:19.931Z,95962.83
2018-05-04T20:37:49.006Z,95965.84
2018-05-04T20:40:17.342Z,95967.17
2018-05-04T20:42:45.678Z,95963.82
2018-05-04T20:45:13.992Z,95966.12
2018-05-04T20:47:42.376Z,95968.17
2018-05-04T20:50:10.714Z,95966.95
2018-05-04T20:52:39.139Z,95973.97
2018-05-04T20:55:07.523Z,95972.86
2018-05-04T20:57:35.869Z,95969.06
2018-05-04T21:00:04.190Z,95970.25
2018-05-04T21:02:32.561Z,95969.63
2018-05-04T21:05:00.939Z,95976.19
2018-05-04T21:07:29.282Z,95975.47
2018-05-04T21:09:57.597Z,95971.94
2018-05-04T21:12:25.941Z,95979.02
2018-05-04T21:14:54.321Z,95981.91
2018-05-04T21:17:22.733Z,95984.22
2018-05-04T21:19:51.128Z,95997.41
2018-05-04T21:22:19.469Z,95995.12
2018-05-04T21:24:47.889Z,95997.09
2018-05-04T21:27:16.238Z,96000.23
2018-05-04T21:29:44.594Z,96006.41
2018-05-04T21:32:12.928Z,96007.38
2018-05-04T21:34:41.594Z,96008.27
2018-05-04T21:37:09.916Z,96014.39
2018-05-04T21:39:38.326Z,96016.67
2018-05-04T21:42:06.655Z,96017.55
2018-05-04T21:44:35.902Z,96017.06
2018-05-04T21:47:04.233Z,96018.61
2018-05-04T21:49:32.654Z,96016.59
2018-05-04T21:52:01.095Z,96005.70
2018-05-04T21:54:29.405Z,96013.53
2018-05-04T21:56:57.737Z,96010.59
2018-05-04T21:59:26.092Z,96015.66
2018-05-04T22:01:54.414Z,96016.48
2018-05-04T22:04:22.762Z,96015.88
2018-05-04T22:06:51.087Z,96021.20
2018-05-04T22:09:19.480Z,96025.55
2018-05-04T22:11:47.808Z,96021.78
2018-05-04T22:14:16.236Z,96022.81
2018-05-04T22:16:44.574Z,96025.59
2018-05-04T22:19:12.914Z,96022.84
2018-05-04T22:21:41.258Z,96029.17
2018-05-04T22:24:09.653Z,96024.48
2018-05-04T22:26:38.001Z,96020.71
2018-05-04T22:29:06.369Z,96026.19
2018-05-04T22:31:34.785Z,96027.01
2018-05-04T22:34:03.125Z,96025.15
2018-05-04T22:36:31.481Z,96024.24
2018-05-04T22:38:59.814Z,96023.94
2018-05-04T22:41:28.172Z,96022.75
2018-05-04T22:43:56.504Z,96017.41
2018-05-04T22:46:25.687Z,96016.85
2018-05-04T22:48:54.007Z,96019.80
2018-05-04T22:51:22.416Z,96012.77
2018-05-04T22:53:50.799Z,96015.48
2018-05-04T22:56:19.146Z,96009.77
2018-05-04T22:58:47.456Z,96015.97
2018-05-04T23:01:15.797Z,96016.58
2018-05-04T23:03:44.124Z,96027.92
2018-05-04T23:06:12.497Z,96024.88
2018-05-04T23:08:40.825Z,96026.09
2018-05-04T23:11:09.150Z,96030.81
2018-05-04T23:13:37.536Z,96020.28
2018-05-04T23:16:05.911Z,96028.08
2018-05-04T23:18:34.281Z,96025.61
2018-05-04T23:21:02.655Z,96027.26
2018-05-04T23:23:30.941Z,96031.77
2018-05-04T23:25:59.271Z,96037.66
2018-05-04T23:28:27.683Z,96035.59
2018-05-04T23:30:56.001Z,96038.42
2018-05-04T23:33:24.328Z,96032.50
2018-05-04T23:35:52.648Z,96036.84
2018-05-04T23:38:20.980Z,96035.08
2018-05-04T23:40:49.288Z,96034.08
2018-05-04T23:43:17.625Z,96028.20
2018-05-04T23:45:45.930Z,96032.46
2018-05-04T23:48:14.313Z,96035.38
2018-05-04T23:50:42.689Z,96034.14
2018-05-04T23:53:11.013Z,96035.87
2018-05-04T23:55:39.320Z,96036.88
2018-05-04T23:58:07.667Z,96038.47
